Time;durP1;ratioP1;P1;durP2;ratioP2;P2;SDS_P1;SDS_P2;PMS_P1;PMS_P2;Temp;Humidity;BMP_temperature;BMP_pressure;BME280_temperature;BME280_humidity;BME280_pressure;Samples;Min_cycle;Max_cycle;Signal;HPM_P1;HPM_P2
2022/03/24 00:03:41;;;;;;;14.88;5.60;;;5.80;90.00;;;;;;10447254;28;20560;-70
2022/03/24 00:08:43;;;;;;;17.17;6.32;;;5.70;89.90;;;;;;10442760;28;20049;-70
2022/03/24 00:13:44;;;;;;;14.27;6.10;;;5.60;90.10;;;;;;10449227;28;20487;-70
2022/03/24 00:18:46;;;;;;;19.38;6.68;;;5.50;90.30;;;;;;10449950;28;20053;-70
2022/03/24 00:23:48;;;;;;;17.02;5.63;;;5.50;90.30;;;;;;10449417;28;20048;-70
2022/03/24 00:28:49;;;;;;;14.13;5.68;;;5.40;90.90;;;;;;10449080;28;20053;-70
2022/03/24 00:33:51;;;;;;;10.00;4.90;;;5.30;91.60;;;;;;10450852;28;20053;-70
2022/03/24 00:38:57;;;;;;;11.77;5.30;;;5.30;92.10;;;;;;10450371;28;20475;-70
2022/03/24 00:44:00;;;;;;;15.02;6.68;;;5.20;93.10;;;;;;10449231;28;20064;-70
2022/03/24 00:49:02;;;;;;;15.23;6.25;;;5.20;94.50;;;;;;10448001;28;20053;-70
2022/03/24 00:54:03;;;;;;;18.02;6.45;;;5.10;94.10;;;;;;10448141;28;20150;-71
2022/03/24 00:59:05;;;;;;;16.92;6.25;;;5.00;93.90;;;;;;10452880;28;20044;-70
2022/03/24 01:04:07;;;;;;;17.50;6.15;;;5.00;94.70;;;;;;10446782;28;20471;-70
2022/03/24 01:09:09;;;;;;;19.27;5.82;;;4.90;95.80;;;;;;10450044;28;20106;-69
2022/03/24 01:14:11;;;;;;;14.00;5.28;;;4.90;96.60;;;;;;10447159;28;20069;-70
2022/03/24 01:19:14;;;;;;;11.52;5.57;;;4.80;96.30;;;;;;10446112;28;20518;-70
2022/03/24 01:24:18;;;;;;;12.32;4.88;;;4.80;97.20;;;;;;10445635;28;20077;-72
2022/03/24 01:29:22;;;;;;;16.35;5.30;;;4.80;97.60;;;;;;10450995;28;20629;-72
2022/03/24 01:34:24;;;;;;;19.77;5.53;;;4.70;95.90;;;;;;10447205;28;20550;-72
2022/03/24 01:39:26;;;;;;;13.32;6.05;;;4.60;95.30;;;;;;10442195;28;20072;-72
2022/03/24 01:44:28;;;;;;;15.75;7.03;;;4.50;95.40;;;;;;10445026;28;20554;-69
2022/03/24 01:49:32;;;;;;;16.38;6.03;;;4.40;94.70;;;;;;10443672;28;20645;-69
2022/03/24 01:54:36;;;;;;;14.30;6.40;;;4.40;94.40;;;;;;10440505;28;20048;-69
2022/03/24 01:59:40;;;;;;;12.23;6.18;;;4.50;95.70;;;;;;10443482;28;20103;-70
2022/03/24 02:04:43;;;;;;;17.52;6.15;;;4.40;95.20;;;;;;10444505;28;20099;-70
2022/03/24 02:09:45;;;;;;;16.45;6.45;;;4.40;96.00;;;;;;10447609;28;20079;-70
2022/03/24 02:14:46;;;;;;;18.80;7.07;;;4.40;95.70;;;;;;10448525;28;20469;-69
2022/03/24 02:19:48;;;;;;;57.00;23.55;;;4.40;96.60;;;;;;10452132;28;20591;-69
2022/03/24 02:24:51;;;;;;;38.35;18.30;;;4.40;96.90;;;;;;10445993;28;20587;-68
2022/03/24 02:29:53;;;;;;;30.83;15.30;;;4.30;97.00;;;;;;10447224;28;20053;-68
2022/03/24 02:34:54;;;;;;;24.60;12.40;;;4.20;97.10;;;;;;10444207;28;20053;-68
2022/03/24 02:39:58;;;;;;;25.90;8.80;;;4.20;97.90;;;;;;10440367;28;20061;-69
2022/03/24 02:45:04;;;;;;;18.67;7.35;;;4.10;98.60;;;;;;10441922;28;20080;-68
2022/03/24 02:50:07;;;;;;;20.10;8.15;;;4.00;98.60;;;;;;10451877;28;20081;-68
2022/03/24 02:55:09;;;;;;;15.27;6.78;;;4.00;99.60;;;;;;10441759;28;20698;-69
2022/03/24 03:00:11;;;;;;;14.63;6.30;;;3.90;98.60;;;;;;10440946;28;20052;-68
2022/03/24 03:05:13;;;;;;;16.60;6.55;;;3.90;99.90;;;;;;10445587;28;20423;-69
2022/03/24 03:10:15;;;;;;;17.52;6.55;;;3.80;99.60;;;;;;10440402;28;20049;-69
2022/03/24 03:15:16;;;;;;;12.70;5.35;;;3.70;99.90;;;;;;10439854;28;20041;-69
2022/03/24 03:20:18;;;;;;;11.75;5.57;;;3.70;99.90;;;;;;10445448;28;20052;-72
2022/03/24 03:25:20;;;;;;;16.73;6.47;;;3.60;99.90;;;;;;10443216;28;20071;-72
2022/03/24 03:30:22;;;;;;;14.13;5.78;;;3.60;99.90;;;;;;10444492;28;20164;-72
2022/03/24 03:35:24;;;;;;;14.15;6.32;;;3.60;99.90;;;;;;10440114;28;20045;-71
2022/03/24 03:40:25;;;;;;;12.57;5.07;;;3.50;99.90;;;;;;10441481;28;20076;-70
2022/03/24 03:45:27;;;;;;;18.90;5.03;;;3.50;99.90;;;;;;10442379;28;20645;-69
2022/03/24 03:50:29;;;;;;;15.25;7.38;;;3.50;99.90;;;;;;10445638;28;20052;-69
2022/03/24 03:55:30;;;;;;;20.83;6.25;;;3.40;99.90;;;;;;10437971;28;20044;-69
2022/03/24 04:00:55;;;;;;;18.33;6.60;;;3.40;99.90;;;;;;10444475;28;20282;-69
2022/03/24 04:06:04;;;;;;;14.07;5.97;;;3.30;99.90;;;;;;10432798;28;20052;-69
2022/03/24 04:11:07;;;;;;;15.15;6.45;;;3.30;99.90;;;;;;10433812;28;20114;-69
2022/03/24 04:16:11;;;;;;;14.90;5.78;;;3.20;99.90;;;;;;10440376;28;20052;-69
2022/03/24 04:21:15;;;;;;;16.40;6.15;;;3.20;99.90;;;;;;10441780;28;20056;-69
2022/03/24 04:26:17;;;;;;;16.13;6.18;;;3.10;99.90;;;;;;10440742;28;20047;-69
2022/03/24 04:31:22;;;;;;;15.27;6.43;;;3.10;99.90;;;;;;10441255;28;20562;-70
2022/03/24 04:36:24;;;;;;;17.90;6.97;;;3.00;99.90;;;;;;10442376;28;20053;-70
2022/03/24 04:41:26;;;;;;;16.83;6.60;;;3.00;99.90;;;;;;10441550;28;20538;-69
2022/03/24 04:46:27;;;;;;;15.80;6.30;;;2.90;99.90;;;;;;10442617;28;20105;-69
2022/03/24 04:51:29;;;;;;;14.55;5.40;;;2.90;99.90;;;;;;10436510;28;20057;-70
2022/03/24 04:56:31;;;;;;;15.77;6.10;;;2.90;99.90;;;;;;10447610;28;20052;-69
2022/03/24 05:01:32;;;;;;;16.25;5.97;;;2.90;99.90;;;;;;10441253;28;20102;-70
2022/03/24 05:06:34;;;;;;;13.70;5.35;;;2.80;99.90;;;;;;10457217;28;20045;-69
2022/03/24 05:11:36;;;;;;;21.13;6.50;;;2.80;99.90;;;;;;10445798;28;20492;-69
2022/03/24 05:16:38;;;;;;;9.95;5.72;;;2.70;99.90;;;;;;10439892;28;20129;-70
2022/03/24 05:21:40;;;;;;;17.75;6.57;;;2.80;99.90;;;;;;10450068;28;20052;-66
2022/03/24 05:26:42;;;;;;;18.55;6.07;;;2.70;99.90;;;;;;10449915;28;20076;-66
2022/03/24 05:31:45;;;;;;;15.52;6.20;;;2.70;99.90;;;;;;10445705;28;20568;-66
2022/03/24 05:36:47;;;;;;;15.63;6.07;;;2.70;99.90;;;;;;10444954;28;20068;-66
2022/03/24 05:41:49;;;;;;;17.67;6.75;;;2.70;99.90;;;;;;10446107;28;20060;-64
2022/03/24 05:46:51;;;;;;;15.70;7.05;;;2.70;99.90;;;;;;10443375;28;20074;-64
2022/03/24 05:51:53;;;;;;;18.73;6.55;;;2.70;99.90;;;;;;10444076;28;20076;-64
2022/03/24 05:56:56;;;;;;;15.95;6.15;;;2.70;99.90;;;;;;10447391;28;20052;-64
2022/03/24 06:01:58;;;;;;;14.82;6.00;;;2.80;99.90;;;;;;10439422;28;20057;-64
2022/03/24 06:07:01;;;;;;;12.40;5.57;;;2.90;99.90;;;;;;10443555;28;20056;-64
2022/03/24 06:12:03;;;;;;;14.57;6.65;;;3.00;99.90;;;;;;10452069;28;20065;-64
2022/03/24 06:17:04;;;;;;;16.05;6.93;;;3.10;99.90;;;;;;10446182;28;20079;-66
2022/03/24 06:22:07;;;;;;;13.90;6.53;;;3.20;99.90;;;;;;10441018;28;20499;-66
2022/03/24 06:27:09;;;;;;;17.77;6.72;;;3.30;99.90;;;;;;10446090;28;20049;-66
2022/03/24 06:32:11;;;;;;;21.75;6.70;;;3.40;99.90;;;;;;10444784;28;20580;-67
2022/03/24 06:37:13;;;;;;;17.08;6.53;;;3.50;99.90;;;;;;10448556;28;20186;-67
2022/03/24 06:42:14;;;;;;;15.82;6.57;;;3.80;99.90;;;;;;10446815;28;20090;-66
2022/03/24 06:47:16;;;;;;;28.52;7.68;;;3.90;99.70;;;;;;10448899;28;20083;-66
2022/03/24 06:52:18;;;;;;;23.55;7.15;;;4.10;99.60;;;;;;10442669;28;20049;-66
2022/03/24 06:57:21;;;;;;;19.63;7.40;;;4.30;97.20;;;;;;10445009;28;20129;-67
2022/03/24 07:02:23;;;;;;;16.67;6.88;;;4.50;95.40;;;;;;10437890;28;20044;-66
2022/03/24 07:07:27;;;;;;;16.73;7.25;;;4.60;94.10;;;;;;10442192;28;20592;-66
2022/03/24 07:12:29;;;;;;;16.25;7.32;;;4.80;93.50;;;;;;10440094;28;20052;-66
2022/03/24 07:17:30;;;;;;;17.50;7.70;;;5.00;92.70;;;;;;10442614;28;20053;-66
2022/03/24 07:22:36;;;;;;;19.75;7.05;;;5.20;92.60;;;;;;10444995;28;20057;-67
2022/03/24 07:27:38;;;;;;;14.27;6.93;;;5.40;92.70;;;;;;10445944;28;20089;-66
2022/03/24 07:32:43;;;;;;;15.25;7.07;;;5.60;90.60;;;;;;10441872;28;20771;-64
2022/03/24 07:37:48;;;;;;;24.07;7.23;;;5.80;89.20;;;;;;10440868;28;20128;-65
2022/03/24 07:42:52;;;;;;;18.40;8.13;;;6.00;87.60;;;;;;10447179;28;20640;-65
2022/03/24 07:48:26;;;;;;;15.13;7.07;;;6.20;86.60;;;;;;10444269;28;20414;-65
2022/03/24 07:53:27;;;;;;;15.18;7.63;;;6.50;86.40;;;;;;10428607;28;20490;-65
2022/03/24 07:58:29;;;;;;;16.58;7.75;;;6.70;85.00;;;;;;10440906;28;20041;-65
2022/03/24 08:03:31;;;;;;;16.60;6.82;;;7.00;83.40;;;;;;10439363;28;20052;-65
2022/03/24 08:08:33;;;;;;;15.60;6.47;;;7.20;81.30;;;;;;10442348;28;20052;-65
2022/03/24 08:13:35;;;;;;;17.77;7.57;;;7.40;78.30;;;;;;10443448;28;20107;-66
2022/03/24 08:18:36;;;;;;;23.10;7.50;;;7.70;78.20;;;;;;10439623;28;20048;-66
2022/03/24 08:23:38;;;;;;;17.40;8.63;;;7.80;76.40;;;;;;10437791;28;20041;-67
2022/03/24 08:28:40;;;;;;;17.90;8.13;;;8.00;76.60;;;;;;10440168;28;20057;-66
2022/03/24 08:33:41;;;;;;;19.08;8.48;;;8.20;75.80;;;;;;10445117;28;20110;-66
2022/03/24 08:38:43;;;;;;;17.90;7.88;;;8.40;75.20;;;;;;10453802;28;20064;-68
2022/03/24 08:43:45;;;;;;;17.77;8.10;;;8.60;73.20;;;;;;10447446;28;20068;-69
2022/03/24 08:48:47;;;;;;;20.08;9.05;;;8.80;73.30;;;;;;10451265;28;20103;-66
2022/03/24 08:53:48;;;;;;;30.00;9.75;;;9.00;72.60;;;;;;10445341;28;20557;-68
2022/03/24 08:58:50;;;;;;;23.33;8.50;;;9.30;70.50;;;;;;10448184;28;20152;-68
2022/03/24 09:03:52;;;;;;;18.05;8.05;;;9.50;69.70;;;;;;10442932;28;20057;-67
2022/03/24 09:08:55;;;;;;;22.23;8.23;;;9.70;69.00;;;;;;10444277;28;20056;-67
2022/03/24 09:13:57;;;;;;;19.38;8.90;;;9.90;68.90;;;;;;10440859;28;20134;-67
2022/03/24 09:18:59;;;;;;;22.52;8.35;;;10.10;66.80;;;;;;10446148;28;20114;-66
2022/03/24 09:24:01;;;;;;;18.63;9.15;;;10.30;65.90;;;;;;10449995;28;20554;-67
2022/03/24 09:29:03;;;;;;;27.00;9.50;;;10.50;66.40;;;;;;10446063;28;20608;-67
2022/03/24 09:34:05;;;;;;;23.33;8.82;;;10.70;66.10;;;;;;10448006;28;20049;-67
2022/03/24 09:39:10;;;;;;;20.77;9.05;;;10.90;66.00;;;;;;10442901;28;20076;-67
2022/03/24 09:44:12;;;;;;;19.33;10.13;;;11.10;65.50;;;;;;10450372;28;20075;-68
2022/03/24 09:49:14;;;;;;;22.00;9.40;;;11.40;65.30;;;;;;10447660;28;20060;-67
2022/03/24 09:54:16;;;;;;;18.02;9.23;;;11.50;65.00;;;;;;10444554;28;20048;-68
2022/03/24 09:59:17;;;;;;;17.60;9.30;;;11.80;64.30;;;;;;10440634;28;20602;-67
2022/03/24 10:04:19;;;;;;;23.98;9.80;;;12.00;64.10;;;;;;10446238;28;20069;-71
2022/03/24 10:09:44;;;;;;;25.92;10.27;;;12.30;64.10;;;;;;10447563;28;20568;-67
2022/03/24 10:15:12;;;;;;;22.35;11.13;;;12.50;62.80;;;;;;10444876;28;20109;-67
2022/03/24 10:20:17;;;;;;;20.63;10.10;;;12.80;62.40;;;;;;10445103;28;20068;-67
2022/03/24 10:25:23;;;;;;;28.88;11.20;;;13.00;61.70;;;;;;10445816;28;20043;-67
2022/03/24 10:30:24;;;;;;;21.35;10.13;;;13.30;61.70;;;;;;10442460;28;20052;-67
2022/03/24 10:35:26;;;;;;;20.88;10.77;;;13.60;60.60;;;;;;10444380;28;20072;-67
2022/03/24 10:40:29;;;;;;;23.85;10.75;;;13.90;59.70;;;;;;10438830;28;20075;-67
2022/03/24 10:45:32;;;;;;;25.10;11.80;;;14.20;60.70;;;;;;10438366;28;20080;-68
2022/03/24 10:50:45;;;;;;;24.95;12.02;;;14.60;59.40;;;;;;10447202;28;20195;-66
2022/03/24 10:56:07;;;;;;;26.60;12.13;;;14.80;59.40;;;;;;10443985;28;20117;-66
2022/03/24 11:01:12;;;;;;;26.92;11.23;;;15.10;57.20;;;;;;10435591;28;20056;-67
2022/03/24 11:06:19;;;;;;;28.60;11.80;;;15.30;56.90;;;;;;10441648;28;20103;-67
2022/03/24 11:11:22;;;;;;;27.70;12.65;;;15.50;55.70;;;;;;10442716;28;20049;-67
2022/03/24 11:16:26;;;;;;;26.88;12.13;;;15.70;56.50;;;;;;10444826;28;20134;-67
2022/03/24 11:21:51;;;;;;;26.02;12.25;;;15.90;55.10;;;;;;10442964;28;20056;-68
2022/03/24 11:26:53;;;;;;;27.63;12.15;;;16.30;54.30;;;;;;10438151;28;20384;-67
2022/03/24 11:31:55;;;;;;;29.08;13.75;;;16.50;51.90;;;;;;10440914;28;20068;-67
2022/03/24 11:36:58;;;;;;;27.13;12.52;;;16.80;51.50;;;;;;10439460;28;20044;-67
2022/03/24 11:42:00;;;;;;;31.15;12.25;;;16.90;50.40;;;;;;10438473;28;20087;-68
2022/03/24 11:47:12;;;;;;;29.52;13.48;;;17.00;49.00;;;;;;10445706;28;20629;-68
2022/03/24 11:52:13;;;;;;;23.92;12.38;;;17.50;48.10;;;;;;10439089;28;20076;-67
2022/03/24 11:57:32;;;;;;;32.65;13.52;;;17.70;47.80;;;;;;10442456;28;20505;-67
2022/03/24 12:02:33;;;;;;;28.67;12.50;;;18.10;47.50;;;;;;10439455;28;20045;-68
2022/03/24 12:07:35;;;;;;;29.67;13.32;;;18.60;45.20;;;;;;10449090;28;20041;-67
2022/03/24 12:12:38;;;;;;;27.70;12.68;;;18.80;46.40;;;;;;10447288;28;20048;-67
2022/03/24 12:18:04;;;;;;;29.05;13.38;;;19.10;45.50;;;;;;10448811;28;20127;-68
2022/03/24 12:23:05;;;;;;;27.05;12.93;;;19.40;44.10;;;;;;10448823;28;20110;-65
2022/03/24 12:28:13;;;;;;;33.30;14.02;;;19.60;43.50;;;;;;10439365;28;20056;-65
2022/03/24 12:33:18;;;;;;;30.80;14.27;;;19.70;43.00;;;;;;10449902;28;20753;-65
2022/03/24 12:38:34;;;;;;;31.23;13.40;;;20.00;42.00;;;;;;10444716;28;20109;-66
2022/03/24 12:43:39;;;;;;;30.77;13.20;;;20.30;41.10;;;;;;10444376;28;20543;-66
2022/03/24 12:48:41;;;;;;;32.27;13.60;;;19.80;40.40;;;;;;10444852;28;20102;-65
2022/03/24 12:53:51;;;;;;;30.17;12.98;;;20.20;41.70;;;;;;10449972;28;20127;-66
2022/03/24 12:58:56;;;;;;;27.25;12.07;;;20.50;38.90;;;;;;10450864;28;20434;-65
2022/03/24 13:04:00;;;;;;;26.83;12.05;;;20.90;38.00;;;;;;10440363;28;20559;-65
2022/03/24 13:09:20;;;;;;;24.73;12.10;;;21.00;37.30;;;;;;10449312;28;20052;-65
2022/03/24 13:14:22;;;;;;;21.48;11.75;;;21.40;37.60;;;;;;10449472;28;20056;-66
2022/03/24 13:19:25;;;;;;;23.27;10.75;;;21.80;37.70;;;;;;10446929;28;20075;-66
2022/03/24 13:24:26;;;;;;;24.52;11.73;;;21.70;36.10;;;;;;10448378;28;20118;-66
2022/03/24 13:29:44;;;;;;;22.25;10.93;;;21.90;35.00;;;;;;10455752;28;20086;-66
2022/03/24 13:34:48;;;;;;;23.63;11.23;;;21.90;36.50;;;;;;10454108;28;20056;-67
2022/03/24 13:39:54;;;;;;;27.55;11.63;;;22.10;35.30;;;;;;10447279;28;20518;-66
2022/03/24 13:44:57;;;;;;;23.65;11.65;;;22.30;34.30;;;;;;10446606;28;20564;-67
2022/03/24 13:50:02;;;;;;;22.10;11.02;;;22.40;33.20;;;;;;10446685;28;20503;-68
2022/03/24 13:55:19;;;;;;;22.83;12.00;;;22.70;33.50;;;;;;10443616;28;20067;-66
2022/03/24 14:00:33;;;;;;;27.27;11.60;;;22.50;33.70;;;;;;10444967;28;20071;-67
2022/03/24 14:05:45;;;;;;;26.98;11.70;;;22.40;32.90;;;;;;10446612;28;20052;-67
2022/03/24 14:10:47;;;;;;;22.50;11.43;;;22.80;33.20;;;;;;10444165;28;20769;-65
2022/03/24 14:15:50;;;;;;;19.65;10.30;;;22.90;32.90;;;;;;10448560;28;20193;-67
2022/03/24 14:20:53;;;;;;;24.90;10.73;;;22.90;32.50;;;;;;10443045;28;20049;-66
2022/03/24 14:26:03;;;;;;;23.40;11.88;;;23.00;31.60;;;;;;10443112;28;20073;-66
2022/03/24 14:31:06;;;;;;;24.88;10.70;;;23.50;31.30;;;;;;10445354;28;20068;-66
2022/03/24 14:36:08;;;;;;;17.83;10.00;;;23.50;30.60;;;;;;10441617;28;20081;-65
2022/03/24 14:41:11;;;;;;;20.73;11.00;;;23.50;29.80;;;;;;10441579;28;20073;-65
2022/03/24 14:46:13;;;;;;;20.55;9.48;;;23.30;29.10;;;;;;10434776;28;20103;-67
2022/03/24 14:51:15;;;;;;;18.40;9.73;;;23.60;29.40;;;;;;10445026;28;20123;-66
2022/03/24 14:56:17;;;;;;;19.65;9.65;;;23.70;28.80;;;;;;10441261;28;20052;-66
2022/03/24 15:01:20;;;;;;;23.75;10.95;;;23.80;29.70;;;;;;10437543;28;20055;-66
2022/03/24 15:06:22;;;;;;;24.05;12.40;;;23.60;31.40;;;;;;10443315;28;20048;-65
2022/03/24 15:11:24;;;;;;;21.10;11.65;;;23.70;32.20;;;;;;10437309;28;20076;-65
2022/03/24 15:16:26;;;;;;;20.95;12.35;;;23.60;32.20;;;;;;10442668;28;20453;-65
2022/03/24 15:21:29;;;;;;;24.77;12.48;;;23.60;32.60;;;;;;10440278;28;20140;-65
2022/03/24 15:26:30;;;;;;;23.63;11.88;;;23.40;32.20;;;;;;10437771;28;20052;-66
2022/03/24 15:31:32;;;;;;;22.85;11.07;;;23.20;32.50;;;;;;10433251;28;20060;-65
2022/03/24 15:36:34;;;;;;;18.75;10.25;;;23.10;31.50;;;;;;10434576;28;20044;-65
2022/03/24 15:41:36;;;;;;;19.20;9.90;;;22.80;30.70;;;;;;10437150;28;20136;-65
2022/03/24 15:46:37;;;;;;;26.15;11.25;;;22.50;31.90;;;;;;10440830;28;20053;-65
2022/03/24 15:51:43;;;;;;;23.48;10.27;;;21.90;30.50;;;;;;10436873;28;20041;-65
2022/03/24 15:56:45;;;;;;;22.43;10.10;;;22.00;31.20;;;;;;10441771;28;20076;-66
2022/03/24 16:01:46;;;;;;;24.60;9.73;;;22.00;30.90;;;;;;10442020;28;20076;-67
2022/03/24 16:06:49;;;;;;;20.65;10.07;;;21.70;30.90;;;;;;10442104;28;20480;-65
2022/03/24 16:11:51;;;;;;;22.83;9.27;;;21.70;32.00;;;;;;10440681;28;20521;-67
2022/03/24 16:16:53;;;;;;;20.33;10.10;;;21.50;30.60;;;;;;10443458;28;20490;-67
2022/03/24 16:21:55;;;;;;;19.60;9.13;;;21.40;29.90;;;;;;10437984;28;20057;-66
2022/03/24 16:26:56;;;;;;;19.55;9.02;;;21.30;28.90;;;;;;10440165;28;20056;-66
2022/03/24 16:32:02;;;;;;;20.80;9.27;;;21.30;29.40;;;;;;10434919;28;20560;-67
2022/03/24 16:37:09;;;;;;;21.02;10.40;;;21.10;32.10;;;;;;10438649;28;20044;-67
2022/03/24 16:42:16;;;;;;;22.15;9.98;;;20.90;34.50;;;;;;10437079;28;20036;-66
2022/03/24 16:47:18;;;;;;;23.05;10.35;;;20.80;34.20;;;;;;10433622;28;20566;-68
2022/03/24 16:52:42;;;;;;;34.33;12.07;;;20.60;36.60;;;;;;10437603;28;20052;-67
2022/03/24 16:57:44;;;;;;;25.25;12.10;;;20.60;37.20;;;;;;10441458;28;20040;-67
2022/03/24 17:02:46;;;;;;;24.90;13.23;;;20.40;37.60;;;;;;10447449;28;20060;-66
2022/03/24 17:07:49;;;;;;;30.08;13.13;;;20.20;38.60;;;;;;10443305;28;20056;-65
2022/03/24 17:12:50;;;;;;;28.67;12.68;;;19.80;39.00;;;;;;10449716;28;20048;-65
2022/03/24 17:17:53;;;;;;;28.70;11.27;;;19.60;40.40;;;;;;10449146;28;20105;-65
2022/03/24 17:22:54;;;;;;;26.60;12.70;;;19.30;40.80;;;;;;10443513;28;20048;-66
2022/03/24 17:27:56;;;;;;;31.13;12.70;;;19.10;41.60;;;;;;10455331;28;20052;-67
2022/03/24 17:32:58;;;;;;;26.05;12.10;;;18.70;42.40;;;;;;10449243;28;20163;-66
2022/03/24 17:37:59;;;;;;;24.35;11.60;;;18.40;43.10;;;;;;10443532;28;20052;-67
2022/03/24 17:43:01;;;;;;;31.23;12.70;;;18.00;43.30;;;;;;10445275;28;20132;-66
2022/03/24 17:48:04;;;;;;;28.42;12.13;;;17.70;44.20;;;;;;10443035;28;20636;-65
2022/03/24 17:53:07;;;;;;;36.53;12.82;;;17.40;44.50;;;;;;10449795;28;20061;-64
2022/03/24 17:58:09;;;;;;;36.65;13.20;;;17.00;49.90;;;;;;10448671;28;20047;-63
2022/03/24 18:03:12;;;;;;;33.65;14.38;;;16.70;52.90;;;;;;10450162;28;20226;-64
2022/03/24 18:08:14;;;;;;;40.85;15.73;;;16.20;55.90;;;;;;10449283;28;20151;-64
2022/03/24 18:13:15;;;;;;;38.42;16.27;;;15.90;57.20;;;;;;10442777;28;20128;-65
2022/03/24 18:18:22;;;;;;;43.42;17.40;;;15.60;54.90;;;;;;10442048;28;20505;-64
2022/03/24 18:23:24;;;;;;;38.00;16.35;;;15.20;55.10;;;;;;10450016;28;20635;-61
2022/03/24 18:28:26;;;;;;;32.83;15.73;;;15.00;57.50;;;;;;10443090;28;20398;-61
2022/03/24 18:33:28;;;;;;;45.55;15.40;;;14.70;55.80;;;;;;10445164;28;20134;-61
2022/03/24 18:38:29;;;;;;;40.90;16.20;;;14.40;54.30;;;;;;10447026;28;20136;-60
2022/03/24 18:43:31;;;;;;;29.80;13.30;;;14.20;55.10;;;;;;10441713;28;20106;-61
2022/03/24 18:48:34;;;;;;;27.50;11.73;;;13.90;57.90;;;;;;10448605;28;20159;-60
2022/03/24 18:53:38;;;;;;;26.75;11.40;;;13.70;58.20;;;;;;10435073;28;20045;-60
2022/03/24 18:58:39;;;;;;;29.25;11.63;;;13.40;58.90;;;;;;10446324;28;20137;-60
2022/03/24 19:03:42;;;;;;;32.67;11.52;;;13.20;58.30;;;;;;10450680;28;20056;-61
2022/03/24 19:08:44;;;;;;;27.67;10.10;;;13.00;58.80;;;;;;10445297;28;20402;-62
2022/03/24 19:13:46;;;;;;;25.50;10.55;;;12.80;58.10;;;;;;10446656;28;20056;-61
2022/03/24 19:18:48;;;;;;;27.80;9.32;;;12.50;59.90;;;;;;10444996;28;20572;-61
2022/03/24 19:23:50;;;;;;;22.58;9.73;;;12.40;57.70;;;;;;10449427;28;20052;-60
2022/03/24 19:28:52;;;;;;;23.10;10.05;;;12.30;59.40;;;;;;10450439;28;20044;-60
2022/03/24 19:33:55;;;;;;;27.52;10.02;;;12.10;60.80;;;;;;10447931;28;20122;-61
2022/03/24 19:38:58;;;;;;;25.58;9.50;;;12.00;60.50;;;;;;10445650;28;20113;-61
2022/03/24 19:44:03;;;;;;;29.15;10.05;;;11.80;62.00;;;;;;10443466;28;20076;-60
2022/03/24 19:49:05;;;;;;;33.33;10.85;;;11.60;63.70;;;;;;10442603;28;20053;-61
2022/03/24 19:54:08;;;;;;;22.15;9.50;;;11.50;64.00;;;;;;10451747;28;20486;-61
2022/03/24 19:59:09;;;;;;;30.80;10.57;;;11.30;64.80;;;;;;10447386;28;20048;-61
2022/03/24 20:04:11;;;;;;;23.75;9.60;;;11.20;65.60;;;;;;10444839;28;20045;-61
2022/03/24 20:09:13;;;;;;;25.23;8.90;;;11.00;64.40;;;;;;10447861;28;20052;-61
2022/03/24 20:14:14;;;;;;;28.10;10.88;;;10.90;64.90;;;;;;10448188;28;20487;-60
2022/03/24 20:19:17;;;;;;;20.50;10.43;;;10.80;65.70;;;;;;10448651;28;20037;-61
2022/03/24 20:24:19;;;;;;;24.25;9.80;;;10.70;67.10;;;;;;10444918;28;20057;-61
2022/03/24 20:29:21;;;;;;;30.05;9.90;;;10.60;67.80;;;;;;10451896;28;20363;-61
2022/03/24 20:34:22;;;;;;;29.15;10.68;;;10.50;66.90;;;;;;10448703;28;20052;-61
2022/03/24 20:39:24;;;;;;;26.42;10.05;;;10.40;67.40;;;;;;10453614;28;20072;-61
2022/03/24 20:44:27;;;;;;;29.08;11.23;;;10.40;66.20;;;;;;10452012;28;20114;-61
2022/03/24 20:49:29;;;;;;;23.08;10.30;;;10.40;65.30;;;;;;10446675;28;20045;-61
2022/03/24 20:54:30;;;;;;;29.60;9.95;;;10.40;63.80;;;;;;10446593;28;20098;-61
2022/03/24 20:59:32;;;;;;;29.63;10.38;;;10.30;64.40;;;;;;10448843;28;20048;-61
2022/03/24 21:04:34;;;;;;;27.75;10.60;;;10.30;61.10;;;;;;10446456;28;20045;-61
2022/03/24 21:09:35;;;;;;;27.42;11.38;;;10.30;64.70;;;;;;10446954;28;20047;-61
2022/03/24 21:14:37;;;;;;;24.58;10.40;;;10.20;65.00;;;;;;10444562;28;20045;-61
2022/03/24 21:19:39;;;;;;;30.25;12.60;;;10.20;65.80;;;;;;10444531;28;20064;-61
2022/03/24 21:24:42;;;;;;;34.05;11.90;;;10.00;68.10;;;;;;10450582;28;20071;-61
2022/03/24 21:29:44;;;;;;;26.63;11.40;;;9.90;67.50;;;;;;10446963;28;20052;-61
2022/03/24 21:34:53;;;;;;;28.35;11.52;;;9.80;65.90;;;;;;10444768;28;20048;-61
2022/03/24 21:39:54;;;;;;;32.13;11.27;;;9.70;66.70;;;;;;10446480;28;20053;-61
2022/03/24 21:44:56;;;;;;;27.85;10.52;;;9.70;63.90;;;;;;10451189;28;20076;-62
2022/03/24 21:49:58;;;;;;;32.85;10.90;;;9.70;64.40;;;;;;10445528;28;20084;-61
2022/03/24 21:55:00;;;;;;;27.05;10.18;;;9.80;61.90;;;;;;10439985;28;20131;-62
2022/03/24 22:00:03;;;;;;;29.75;10.82;;;9.90;61.60;;;;;;10444857;28;20097;-61
2022/03/24 22:05:07;;;;;;;27.83;11.48;;;9.90;61.40;;;;;;10445919;28;20045;-61
2022/03/24 22:10:09;;;;;;;37.13;11.88;;;9.80;62.90;;;;;;10439630;28;20061;-61
2022/03/24 22:15:32;;;;;;;23.67;10.32;;;9.70;64.30;;;;;;10446013;28;20658;-61
2022/03/24 22:20:35;;;;;;;31.65;10.68;;;9.60;64.50;;;;;;10440251;28;20052;-60
2022/03/24 22:25:36;;;;;;;27.80;11.50;;;9.50;65.80;;;;;;10444396;28;20378;-60
2022/03/24 22:30:38;;;;;;;28.65;11.20;;;9.40;66.20;;;;;;10440241;28;20045;-61
2022/03/24 22:35:40;;;;;;;30.73;11.00;;;9.30;66.80;;;;;;10446554;28;20036;-61
2022/03/24 22:40:43;;;;;;;31.35;11.55;;;9.20;67.60;;;;;;10445703;28;20052;-62
2022/03/24 22:45:45;;;;;;;25.83;10.82;;;9.00;68.40;;;;;;10442196;28;20119;-61
2022/03/24 22:50:47;;;;;;;30.20;12.27;;;8.90;68.70;;;;;;10444183;28;20053;-61
2022/03/24 22:55:48;;;;;;;27.20;12.05;;;8.80;69.70;;;;;;10446942;28;20103;-61
2022/03/24 23:01:09;;;;;;;36.90;12.48;;;8.70;70.10;;;;;;10440932;28;20465;-61
2022/03/24 23:06:28;;;;;;;34.03;13.30;;;8.50;71.70;;;;;;10445349;28;20474;-60
2022/03/24 23:11:32;;;;;;;40.33;16.45;;;8.40;72.80;;;;;;10436890;28;20045;-60
2022/03/24 23:16:34;;;;;;;40.72;15.70;;;8.30;74.00;;;;;;10448736;28;20727;-60
2022/03/24 23:21:36;;;;;;;35.58;14.45;;;8.10;74.80;;;;;;10440886;28;20136;-61
2022/03/24 23:26:38;;;;;;;40.53;18.30;;;8.00;75.80;;;;;;10442897;28;20053;-62
2022/03/24 23:31:40;;;;;;;38.13;15.57;;;7.90;76.50;;;;;;10448938;28;20774;-62
2022/03/24 23:36:41;;;;;;;38.30;15.18;;;7.80;75.30;;;;;;10440792;28;20052;-61
2022/03/24 23:41:43;;;;;;;38.47;14.63;;;7.70;76.10;;;;;;10443166;28;20083;-62
2022/03/24 23:46:45;;;;;;;35.20;14.65;;;7.70;77.60;;;;;;10440415;28;20049;-62
2022/03/24 23:51:47;;;;;;;34.75;15.18;;;7.60;78.10;;;;;;10443146;28;20387;-62
2022/03/24 23:56:48;;;;;;;35.60;13.50;;;7.60;78.60;;;;;;10440836;28;20491;-62
